createdAt,value
2024-02-04T00:00:16.123Z,60.45
2024-02-04T00:01:16.212Z,57.60
2024-02-04T00:02:16.113Z,56.91
2024-02-04T00:03:16.129Z,59.57
2024-02-04T00:04:16.184Z,56.68
2024-02-04T00:05:16.089Z,55.64
2024-02-04T00:06:16.117Z,54.17
2024-02-04T00:07:16.195Z,59.14
2024-02-04T00:08:16.074Z,63.48
2024-02-04T00:09:16.073Z,51.80
2024-02-04T00:10:16.108Z,50.05
2024-02-04T00:13:16.098Z,56.40
2024-02-04T00:14:16.070Z,60.26
2024-02-04T00:15:16.074Z,50.24
2024-02-04T00:16:16.068Z,53.92
2024-02-04T00:17:16.047Z,51.06
2024-02-04T00:18:17.287Z,44.67
2024-02-04T00:19:17.157Z,52.61
2024-02-04T00:20:17.124Z,56.22
2024-02-04T00:21:17.141Z,58.93
2024-02-04T00:22:17.104Z,53.98
2024-02-04T00:23:17.101Z,61.49
2024-02-04T00:24:17.136Z,59.30
2024-02-04T00:25:17.120Z,49.46
2024-02-04T00:26:18.117Z,56.75
2024-02-04T00:27:17.058Z,51.83
2024-02-04T00:28:17.061Z,53.33
2024-02-04T00:29:17.054Z,53.12
2024-02-04T00:30:17.039Z,60.57
2024-02-04T00:31:18.948Z,52.43
2024-02-04T00:32:17.051Z,59.20
2024-02-04T00:33:17.131Z,59.36
2024-02-04T00:34:17.094Z,56.00
2024-02-04T00:35:17.023Z,58.27
2024-02-04T00:36:16.997Z,57.04
2024-02-04T00:37:16.995Z,56.38
2024-02-04T00:38:17.004Z,47.00
2024-02-04T00:39:16.980Z,51.13
2024-02-04T00:40:16.978Z,57.78
2024-02-04T00:41:17.002Z,53.23
2024-02-04T00:42:16.954Z,52.92
2024-02-04T00:43:17.996Z,57.29
2024-02-04T00:44:16.961Z,58.12
2024-02-04T00:45:16.968Z,55.95
2024-02-04T00:46:16.940Z,58.88
2024-02-04T00:47:16.950Z,55.03
2024-02-04T00:48:16.947Z,60.39
2024-02-04T00:49:17.062Z,45.37
2024-02-04T00:50:16.892Z,39.49
2024-02-04T00:51:16.912Z,52.51
2024-02-04T00:52:16.885Z,53.87
2024-02-04T00:53:16.884Z,57.03
2024-02-04T00:54:17.058Z,56.85
2024-02-04T00:55:16.839Z,55.67
2024-02-04T00:56:18.547Z,50.83
2024-02-04T00:57:16.834Z,53.24
2024-02-04T00:58:16.897Z,54.77
2024-02-04T00:59:18.454Z,54.45
2024-02-04T01:00:16.821Z,48.84
2024-02-04T01:01:17.143Z,55.69
2024-02-04T01:02:18.539Z,49.79
2024-02-04T01:03:16.948Z,55.99
2024-02-04T01:04:16.841Z,58.42
2024-02-04T01:05:16.801Z,55.88
2024-02-04T01:06:17.459Z,60.13
2024-02-04T01:07:16.799Z,55.93
2024-02-04T01:08:16.740Z,57.56
2024-02-04T01:09:19.459Z,50.17
2024-02-04T01:10:16.802Z,54.54
2024-02-04T01:11:16.729Z,51.56
2024-02-04T01:12:16.736Z,50.42
2024-02-04T01:13:16.708Z,42.51
2024-02-04T01:14:16.695Z,58.62
2024-02-04T01:15:16.693Z,56.47
2024-02-04T01:16:16.729Z,61.37
2024-02-04T01:17:16.683Z,55.54
2024-02-04T01:18:16.740Z,59.82
2024-02-04T01:19:17.081Z,61.20
2024-02-04T01:20:16.641Z,50.80
2024-02-04T01:21:16.649Z,54.81
2024-02-04T01:22:16.645Z,56.07
2024-02-04T01:23:16.635Z,53.25
2024-02-04T01:24:16.628Z,58.60
2024-02-04T01:25:17.547Z,53.45
2024-02-04T01:26:16.605Z,58.21
2024-02-04T01:27:16.596Z,49.14
2024-02-04T01:28:16.604Z,49.69
2024-02-04T01:29:17.611Z,55.61
2024-02-04T01:30:16.629Z,49.03
2024-02-04T01:31:16.615Z,48.85
2024-02-04T01:32:16.572Z,55.91
2024-02-04T01:33:16.715Z,51.50
2024-02-04T01:34:16.698Z,41.63
2024-02-04T01:35:16.821Z,56.46
2024-02-04T01:36:16.531Z,48.00
2024-02-04T01:37:16.538Z,46.57
2024-02-04T01:38:16.545Z,60.17
2024-02-04T01:39:16.502Z,50.80
2024-02-04T01:40:16.509Z,57.72
2024-02-04T01:41:16.520Z,50.21
2024-02-04T01:42:16.480Z,50.33
2024-02-04T01:43:16.497Z,42.67
2024-02-04T01:44:16.480Z,59.51
2024-02-04T01:45:16.486Z,56.30
2024-02-04T01:46:16.487Z,47.93
2024-02-04T01:47:16.978Z,55.07
2024-02-04T01:48:16.531Z,58.43
2024-02-04T01:49:17.018Z,58.87
2024-02-04T01:50:16.460Z,47.78
2024-02-04T01:51:16.427Z,38.06
2024-02-04T01:52:17.055Z,49.09
2024-02-04T01:53:16.397Z,50.30
2024-02-04T01:54:16.393Z,52.36
2024-02-04T01:55:16.374Z,51.27
2024-02-04T01:56:16.372Z,52.70
2024-02-04T01:57:16.393Z,54.90
2024-02-04T01:58:16.365Z,56.15
2024-02-04T01:59:16.367Z,49.49
2024-02-04T02:00:16.375Z,41.72
2024-02-04T02:01:16.417Z,51.67
2024-02-04T02:02:16.368Z,40.50
2024-02-04T02:03:16.362Z,50.98
2024-02-04T02:04:16.360Z,44.16
2024-02-04T02:05:16.368Z,57.50
2024-02-04T02:06:16.481Z,54.31
2024-02-04T02:07:17.141Z,53.76
2024-02-04T02:08:16.313Z,48.21
2024-02-04T02:09:16.329Z,53.33
2024-02-04T02:10:16.501Z,54.79
2024-02-04T02:11:17.998Z,49.07
2024-02-04T02:12:16.247Z,53.27
2024-02-04T02:13:16.268Z,52.02
2024-02-04T02:14:16.240Z,53.07
2024-02-04T02:15:16.243Z,49.43
2024-02-04T02:16:18.046Z,55.68
2024-02-04T02:17:16.206Z,58.22
2024-02-04T02:18:16.236Z,53.17
2024-02-04T02:19:16.369Z,55.73
2024-02-04T02:20:16.166Z,42.95
2024-02-04T02:21:16.171Z,54.15
2024-02-04T02:22:16.175Z,42.76
2024-02-04T02:23:16.149Z,43.39
2024-02-04T02:24:17.004Z,54.72
2024-02-04T02:25:17.085Z,48.79
2024-02-04T02:26:16.123Z,52.96
2024-02-04T02:27:16.115Z,46.45
2024-02-04T02:28:16.108Z,44.98
2024-02-04T02:29:16.120Z,55.72
2024-02-04T02:30:16.099Z,49.18
2024-02-04T02:31:18.809Z,58.57
2024-02-04T02:32:16.078Z,38.72
2024-02-04T02:33:16.065Z,39.55
2024-02-04T02:34:27.256Z,45.06
2024-02-04T02:35:18.314Z,40.20
2024-02-04T02:36:16.054Z,55.70
2024-02-04T02:37:16.059Z,44.99
2024-02-04T02:38:16.026Z,46.96
2024-02-04T02:39:16.041Z,39.31
2024-02-04T02:40:16.036Z,42.42
2024-02-04T02:41:16.009Z,53.02
2024-02-04T02:42:16.008Z,59.71
2024-02-04T02:43:16.034Z,54.31
2024-02-04T02:44:15.998Z,52.97
2024-02-04T02:45:15.970Z,38.81
2024-02-04T02:46:16.556Z,53.47
2024-02-04T02:47:16.032Z,46.85
2024-02-04T02:48:16.127Z,47.81
2024-02-04T02:49:16.161Z,48.62
2024-02-04T02:50:15.969Z,56.05
2024-02-04T02:51:15.948Z,47.23
2024-02-04T02:52:15.940Z,50.83
2024-02-04T02:53:15.907Z,53.62
2024-02-04T02:54:15.905Z,45.97
2024-02-04T02:55:15.940Z,40.55
2024-02-04T02:56:15.901Z,56.62
2024-02-04T02:57:15.875Z,40.24
2024-02-04T02:58:15.873Z,56.13
2024-02-04T02:59:15.872Z,39.16
2024-02-04T03:00:15.864Z,39.72
2024-02-04T03:01:16.017Z,52.03
2024-02-04T03:02:17.553Z,47.62
2024-02-04T03:03:15.892Z,51.58
2024-02-04T03:04:16.630Z,61.52
2024-02-04T03:05:15.836Z,49.02
2024-02-04T03:06:15.876Z,52.39
2024-02-04T03:07:15.811Z,39.46
2024-02-04T03:08:15.804Z,37.87
2024-02-04T03:09:15.793Z,53.52
2024-02-04T03:10:15.827Z,42.15
2024-02-04T03:11:15.792Z,55.06
2024-02-04T03:12:15.768Z,44.35
2024-02-04T03:13:15.753Z,55.37
2024-02-04T03:14:15.742Z,57.53
2024-02-04T03:15:15.779Z,58.42
2024-02-04T03:16:15.741Z,52.61
2024-02-04T03:17:17.569Z,57.58
2024-02-04T03:18:15.732Z,46.47
2024-02-04T03:19:15.844Z,54.34
2024-02-04T03:20:20.118Z,52.31
2024-02-04T03:21:15.701Z,57.17
2024-02-04T03:22:15.696Z,51.37
2024-02-04T03:23:15.689Z,48.31
2024-02-04T03:24:16.606Z,40.58
2024-02-04T03:25:15.761Z,54.33
2024-02-04T03:26:15.654Z,48.68
2024-02-04T03:27:15.665Z,51.13
2024-02-04T03:28:15.652Z,38.04
2024-02-04T03:29:15.645Z,37.73
2024-02-04T03:30:15.638Z,43.93
2024-02-04T03:31:15.635Z,39.22
2024-02-04T03:32:15.618Z,43.79
2024-02-04T03:33:15.695Z,49.84
2024-02-04T03:34:15.676Z,40.56
2024-02-04T03:35:15.597Z,52.26
2024-02-04T03:36:15.613Z,44.53
2024-02-04T03:37:15.663Z,51.96
2024-02-04T03:38:15.578Z,52.69
2024-02-04T03:39:15.550Z,58.60
2024-02-04T03:40:16.536Z,48.13
2024-02-04T03:41:15.535Z,54.85
2024-02-04T03:42:15.537Z,55.41
2024-02-04T03:43:15.551Z,47.56
2024-02-04T03:44:15.572Z,47.87
2024-02-04T03:45:15.518Z,50.53
2024-02-04T03:46:15.549Z,48.65
2024-02-04T03:47:15.509Z,51.35
2024-02-04T03:48:15.574Z,48.26
2024-02-04T03:49:15.589Z,51.39
2024-02-04T03:50:15.598Z,51.29
2024-02-04T03:51:15.553Z,53.87
2024-02-04T03:52:15.542Z,47.19
2024-02-04T03:53:15.498Z,54.63
2024-02-04T03:54:15.585Z,45.34
2024-02-04T03:55:15.481Z,39.29
2024-02-04T03:56:15.499Z,51.58
2024-02-04T03:57:15.445Z,51.75
2024-02-04T03:58:15.418Z,47.89
2024-02-04T03:59:15.407Z,48.44
2024-02-04T04:00:15.405Z,49.15
2024-02-04T04:01:15.524Z,55.71
2024-02-04T04:02:15.373Z,48.39
2024-02-04T04:03:15.388Z,53.14
2024-02-04T04:04:15.444Z,55.11
2024-02-04T04:05:15.588Z,42.31
2024-02-04T04:06:15.490Z,50.42
2024-02-04T04:07:15.491Z,52.13
2024-02-04T04:08:15.350Z,42.32
2024-02-04T04:09:15.318Z,55.54
2024-02-04T04:10:15.317Z,44.41
2024-02-04T04:11:15.309Z,54.06
2024-02-04T04:12:15.298Z,45.05
2024-02-04T04:13:15.308Z,42.85
2024-02-04T04:14:15.297Z,46.65
2024-02-04T04:15:15.334Z,52.69
2024-02-04T04:16:15.263Z,41.26
2024-02-04T04:17:15.265Z,49.87
2024-02-04T04:18:15.329Z,53.53
2024-02-04T04:19:15.399Z,55.46
2024-02-04T04:20:15.243Z,47.16
2024-02-04T04:21:15.243Z,53.17
2024-02-04T04:22:15.220Z,39.74
2024-02-04T04:23:15.226Z,44.21
2024-02-04T04:24:15.221Z,51.11
2024-02-04T04:25:15.219Z,53.40
2024-02-04T04:26:15.206Z,48.50
2024-02-04T04:27:15.198Z,55.56
2024-02-04T04:28:15.179Z,60.65
2024-02-04T04:29:15.162Z,47.87
2024-02-04T04:30:15.174Z,59.54
2024-02-04T04:31:16.155Z,49.21
2024-02-04T04:32:17.100Z,45.17
2024-02-04T04:33:15.279Z,47.15
2024-02-04T04:34:15.255Z,57.42
2024-02-04T04:35:15.122Z,51.83
2024-02-04T04:36:16.100Z,51.07
2024-02-04T04:37:15.232Z,55.03
2024-02-04T04:38:15.110Z,59.48
2024-02-04T04:39:15.094Z,58.29
2024-02-04T04:40:15.081Z,58.70
2024-02-04T04:41:15.073Z,53.78
2024-02-04T04:42:15.064Z,58.39
2024-02-04T04:43:16.053Z,53.76
2024-02-04T04:44:15.053Z,47.04
2024-02-04T04:45:15.036Z,57.04
2024-02-04T04:46:15.109Z,51.34
2024-02-04T04:47:15.017Z,52.27
2024-02-04T04:48:15.110Z,49.63
2024-02-04T04:49:15.051Z,55.23
2024-02-04T04:50:14.997Z,50.96
2024-02-04T04:51:14.995Z,49.65
2024-02-04T04:52:15.001Z,55.94
2024-02-04T04:53:14.979Z,54.96
2024-02-04T04:54:14.984Z,58.84
2024-02-04T04:55:15.066Z,57.86
2024-02-04T04:56:47.069Z,50.05
2024-02-04T04:57:14.935Z,46.43
2024-02-04T04:58:15.023Z,43.76
2024-02-04T04:59:14.918Z,50.40
2024-02-04T05:00:14.931Z,54.18
2024-02-04T05:01:15.013Z,57.90
2024-02-04T05:02:14.898Z,53.48
2024-02-04T05:03:14.949Z,54.76
2024-02-04T05:04:14.966Z,43.21
2024-02-04T05:05:14.886Z,46.35
2024-02-04T05:06:14.911Z,56.99
2024-02-04T05:07:14.902Z,54.02
2024-02-04T05:08:14.918Z,53.56
2024-02-04T05:09:14.853Z,51.20
2024-02-04T05:10:17.644Z,52.93
2024-02-04T05:11:14.847Z,42.43
2024-02-04T05:12:47.636Z,47.42
2024-02-04T05:13:14.872Z,59.25
2024-02-04T05:14:14.809Z,46.39
2024-02-04T05:15:14.829Z,43.71
2024-02-04T05:16:14.881Z,54.39
2024-02-04T05:17:14.830Z,58.86
2024-02-04T05:18:14.884Z,47.36
2024-02-04T05:19:14.921Z,55.55
2024-02-04T05:20:14.774Z,59.13
2024-02-04T05:21:14.762Z,57.04
2024-02-04T05:22:14.831Z,53.64
2024-02-04T05:23:14.793Z,51.13
2024-02-04T05:24:47.690Z,56.66
2024-02-04T05:25:14.737Z,39.30
2024-02-04T05:26:14.740Z,39.18
2024-02-04T05:27:14.719Z,58.02
2024-02-04T05:28:14.843Z,56.55
2024-02-04T05:29:14.739Z,53.72
2024-02-04T05:30:14.709Z,48.20
2024-02-04T05:31:14.774Z,55.26
2024-02-04T05:32:14.687Z,52.63
2024-02-04T05:33:14.715Z,60.86
2024-02-04T05:34:14.736Z,51.85
2024-02-04T05:35:14.730Z,46.21
2024-02-04T05:36:14.687Z,47.57
2024-02-04T05:37:14.689Z,54.93
2024-02-04T05:38:14.669Z,50.36
2024-02-04T05:39:14.704Z,58.63
2024-02-04T05:40:15.637Z,57.47
2024-02-04T05:41:14.612Z,51.12
2024-02-04T05:42:14.624Z,51.01
2024-02-04T05:43:14.637Z,44.59
2024-02-04T05:44:14.652Z,55.17
2024-02-04T05:45:14.620Z,50.19
2024-02-04T05:46:15.689Z,56.51
2024-02-04T05:47:14.625Z,49.67
2024-02-04T05:48:14.731Z,59.09
2024-02-04T05:49:14.737Z,56.36
2024-02-04T05:50:14.607Z,58.50
2024-02-04T05:51:14.548Z,58.27
2024-02-04T05:52:14.596Z,46.64
2024-02-04T05:53:16.149Z,42.73
2024-02-04T05:54:14.514Z,56.48
2024-02-04T05:55:16.255Z,49.69
2024-02-04T05:56:14.515Z,48.41
2024-02-04T05:57:16.140Z,50.56
2024-02-04T05:58:14.509Z,56.14
2024-02-04T05:59:14.479Z,53.78
2024-02-04T06:00:14.459Z,57.24
2024-02-04T06:01:14.546Z,54.93
2024-02-04T06:02:14.457Z,54.10
2024-02-04T06:03:14.466Z,47.31
2024-02-04T06:04:14.581Z,45.91
2024-02-04T06:05:14.417Z,43.18
2024-02-04T06:06:14.460Z,45.10
2024-02-04T06:07:14.454Z,54.87
2024-02-04T06:08:14.438Z,58.64
2024-02-04T06:09:14.396Z,56.66
2024-02-04T06:10:14.584Z,43.44
2024-02-04T06:11:14.463Z,45.27
2024-02-04T06:12:14.388Z,54.76
2024-02-04T06:13:14.452Z,47.90
2024-02-04T06:14:14.362Z,57.49
2024-02-04T06:15:15.212Z,41.31
2024-02-04T06:16:14.452Z,46.32
2024-02-04T06:17:14.367Z,56.80
2024-02-04T06:18:14.419Z,45.59
2024-02-04T06:19:14.701Z,41.54
2024-02-04T06:20:14.516Z,50.52
2024-02-04T06:21:14.312Z,57.49
2024-02-04T06:22:14.343Z,53.75
2024-02-04T06:23:14.313Z,43.11
2024-02-04T06:24:14.316Z,51.48
2024-02-04T06:25:14.410Z,47.90
2024-02-04T06:26:15.137Z,45.34
2024-02-04T06:27:14.251Z,55.69
2024-02-04T06:28:15.351Z,59.63
2024-02-04T06:29:14.294Z,59.55
2024-02-04T06:30:15.732Z,56.07
2024-02-04T06:31:14.327Z,58.99
2024-02-04T06:32:14.276Z,58.97
2024-02-04T06:33:14.343Z,55.63
2024-02-04T06:34:14.483Z,55.90
2024-02-04T06:35:14.282Z,59.04
2024-02-04T06:36:14.295Z,60.34
2024-02-04T06:37:14.276Z,54.44
2024-02-04T06:38:14.277Z,55.08
2024-02-04T06:39:14.185Z,53.94
2024-02-04T06:40:15.193Z,58.60
2024-02-04T06:41:14.149Z,56.16
2024-02-04T06:42:14.158Z,55.87
2024-02-04T06:43:14.181Z,55.63
2024-02-04T06:44:14.136Z,56.34
2024-02-04T06:45:14.114Z,51.16
2024-02-04T06:46:14.152Z,51.29
2024-02-04T06:47:14.102Z,61.79
2024-02-04T06:48:14.783Z,59.28
2024-02-04T06:49:14.130Z,54.47
2024-02-04T06:50:15.122Z,53.06
2024-02-04T06:51:14.091Z,56.29
2024-02-04T06:52:14.138Z,60.35
2024-02-04T06:53:14.063Z,58.08
2024-02-04T06:54:14.072Z,59.27
2024-02-04T06:55:14.102Z,46.80
2024-02-04T06:56:14.039Z,53.15
2024-02-04T06:57:14.027Z,51.32
2024-02-04T06:58:19.135Z,61.05
2024-02-04T06:59:13.995Z,53.53
2024-02-04T07:00:14.057Z,56.55
2024-02-04T07:01:14.202Z,59.17
2024-02-04T07:02:14.004Z,56.87
2024-02-04T07:03:14.035Z,53.05
2024-02-04T07:04:16.975Z,53.77
2024-02-04T07:05:16.757Z,53.12
2024-02-04T07:06:14.189Z,57.10
2024-02-04T07:07:14.003Z,56.08
2024-02-04T07:08:13.926Z,58.84
2024-02-04T07:09:14.723Z,62.46
2024-02-04T07:10:13.945Z,48.62
2024-02-04T07:11:13.901Z,46.72
2024-02-04T07:12:13.901Z,55.40
2024-02-04T07:13:13.990Z,58.49
2024-02-04T07:14:13.881Z,54.88
2024-02-04T07:15:13.920Z,57.86
2024-02-04T07:16:14.696Z,54.53
2024-02-04T07:17:13.858Z,58.53
2024-02-04T07:18:13.915Z,59.90
2024-02-04T07:19:13.943Z,59.56
2024-02-04T07:20:13.947Z,56.86
2024-02-04T07:21:13.830Z,55.67
2024-02-04T07:22:13.836Z,60.29
2024-02-04T07:23:13.818Z,64.24
2024-02-04T07:24:14.801Z,64.82
2024-02-04T07:25:13.854Z,58.98
2024-02-04T07:26:13.778Z,60.00
2024-02-04T07:27:13.791Z,57.91
2024-02-04T07:28:13.860Z,58.00
2024-02-04T07:29:14.665Z,59.62
2024-02-04T07:30:13.778Z,55.82
2024-02-04T07:31:13.786Z,51.97
2024-02-04T07:32:13.747Z,53.39
2024-02-04T07:33:16.477Z,52.93
2024-02-04T07:34:13.844Z,56.38
2024-02-04T07:35:13.797Z,60.68
2024-02-04T07:36:13.745Z,58.07
2024-02-04T07:37:13.766Z,56.68
2024-02-04T07:38:13.677Z,61.36
2024-02-04T07:39:13.698Z,61.07
2024-02-04T07:40:13.760Z,53.94
2024-02-04T07:41:13.666Z,56.43
2024-02-04T07:42:13.663Z,49.05
2024-02-04T07:43:13.710Z,62.67
2024-02-04T07:44:13.662Z,60.68
2024-02-04T07:45:13.632Z,58.51
2024-02-04T07:46:13.735Z,54.55
2024-02-04T07:47:13.624Z,60.60
2024-02-04T07:48:13.659Z,60.46
2024-02-04T07:49:13.729Z,54.04
2024-02-04T07:50:13.672Z,56.06
2024-02-04T07:51:13.586Z,60.82
2024-02-04T07:52:13.684Z,58.90
2024-02-04T07:53:13.582Z,58.29
2024-02-04T07:54:13.565Z,63.11
2024-02-04T07:55:13.634Z,58.31
2024-02-04T07:56:14.180Z,58.99
2024-02-04T07:57:13.551Z,60.35
2024-02-04T07:58:13.578Z,60.67
2024-02-04T07:59:14.268Z,56.43
2024-02-04T08:00:13.544Z,60.06
2024-02-04T08:01:13.609Z,59.88
2024-02-04T08:02:13.538Z,60.28
2024-02-04T08:03:13.567Z,61.31
2024-02-04T08:04:14.348Z,59.46
2024-02-04T08:05:13.591Z,63.24
2024-02-04T08:06:13.491Z,62.05
2024-02-04T08:07:13.592Z,57.86
2024-02-04T08:08:13.521Z,60.62
2024-02-04T08:09:13.456Z,62.25
2024-02-04T08:10:13.587Z,59.42
2024-02-04T08:11:13.446Z,57.21
2024-02-04T08:12:13.450Z,58.10
2024-02-04T08:13:13.479Z,60.52
2024-02-04T08:14:13.413Z,60.70
2024-02-04T08:15:13.420Z,61.31
2024-02-04T08:16:13.529Z,60.15
2024-02-04T08:17:13.384Z,58.62
2024-02-04T08:18:14.263Z,61.06
2024-02-04T08:19:13.481Z,60.74
2024-02-04T08:20:13.449Z,63.74
2024-02-04T08:21:13.373Z,63.22
2024-02-04T08:22:13.386Z,64.39
2024-02-04T08:23:14.366Z,57.99
2024-02-04T08:24:13.322Z,65.03
2024-02-04T08:25:13.496Z,63.26
2024-02-04T08:26:14.318Z,61.31
2024-02-04T08:27:13.309Z,63.07
2024-02-04T08:28:13.344Z,60.14
2024-02-04T08:29:13.339Z,58.25
2024-02-04T08:30:13.314Z,63.88
2024-02-04T08:31:13.290Z,59.95
2024-02-04T08:32:14.298Z,58.20
2024-02-04T08:33:17.331Z,62.06
2024-02-04T08:34:13.372Z,61.68
2024-02-04T08:35:13.247Z,59.54
2024-02-04T08:36:13.786Z,61.36
2024-02-04T08:37:13.287Z,59.52
2024-02-04T08:38:17.359Z,59.35
2024-02-04T08:39:14.206Z,62.38
2024-02-04T08:40:13.237Z,59.87
2024-02-04T08:41:14.187Z,58.49
2024-02-04T08:42:14.777Z,57.79
2024-02-04T08:43:14.262Z,55.91
2024-02-04T08:44:18.870Z,62.94
2024-02-04T08:45:15.159Z,60.93
2024-02-04T08:46:14.241Z,60.10
2024-02-04T08:47:14.162Z,59.86
2024-02-04T08:48:13.302Z,56.81
2024-02-04T08:49:14.725Z,58.46
2024-02-04T08:50:13.137Z,61.38
2024-02-04T08:51:13.211Z,60.86
2024-02-04T08:52:13.753Z,62.58
2024-02-04T08:53:13.083Z,62.86
2024-02-04T08:54:13.115Z,63.63
2024-02-04T08:55:13.139Z,62.32
2024-02-04T08:56:15.812Z,61.93
2024-02-04T08:57:13.084Z,61.61
2024-02-04T08:58:13.113Z,61.59
2024-02-04T08:59:13.059Z,63.84
2024-02-04T09:00:13.393Z,60.28
2024-02-04T09:01:13.142Z,61.10
2024-02-04T09:02:13.089Z,65.85
2024-02-04T09:03:13.057Z,62.36
2024-02-04T09:04:13.776Z,60.86
2024-02-04T09:05:13.025Z,70.75
2024-02-04T09:06:13.063Z,61.96
2024-02-04T09:07:13.049Z,60.67
2024-02-04T09:08:13.019Z,58.92
2024-02-04T09:09:13.001Z,60.53
2024-02-04T09:10:13.041Z,59.38
2024-02-04T09:11:12.962Z,60.06
2024-02-04T09:12:12.971Z,66.25
2024-02-04T09:13:13.001Z,62.51
2024-02-04T09:14:14.654Z,59.95
2024-02-04T09:15:12.975Z,61.38
2024-02-04T09:16:13.041Z,58.97
2024-02-04T09:17:13.960Z,59.66
2024-02-04T09:18:15.908Z,61.81
2024-02-04T09:19:13.147Z,62.09
2024-02-04T09:20:13.337Z,65.53
2024-02-04T09:21:13.086Z,63.31
2024-02-04T09:22:12.975Z,60.24
2024-02-04T09:23:12.892Z,60.34
2024-02-04T09:24:13.729Z,62.33
2024-02-04T09:25:12.983Z,59.62
2024-02-04T09:26:15.239Z,63.46
2024-02-04T09:27:13.646Z,62.07
2024-02-04T09:28:13.816Z,60.18
2024-02-04T09:29:12.820Z,60.65
2024-02-04T09:30:12.900Z,59.83
2024-02-04T09:31:13.275Z,59.63
2024-02-04T09:32:15.974Z,60.90
2024-02-04T09:33:12.932Z,60.37
2024-02-04T09:34:13.492Z,60.87
2024-02-04T09:35:13.021Z,60.95
2024-02-04T09:36:12.975Z,62.99
2024-02-04T09:37:14.827Z,61.16
2024-02-04T09:38:18.285Z,58.77
2024-02-04T09:39:13.798Z,62.90
2024-02-04T09:40:12.914Z,61.64
2024-02-04T09:41:12.718Z,64.87
2024-02-04T09:42:13.272Z,62.43
2024-02-04T09:43:12.812Z,61.30
2024-02-04T09:44:13.614Z,61.45
2024-02-04T09:45:12.678Z,63.88
2024-02-04T09:46:12.843Z,60.26
2024-02-04T09:47:14.307Z,58.48
2024-02-04T09:48:12.734Z,62.33
2024-02-04T09:49:12.791Z,60.53
2024-02-04T09:50:12.902Z,62.40
2024-02-04T09:51:12.690Z,60.01
2024-02-04T09:52:12.744Z,61.70
2024-02-04T09:53:12.750Z,62.65
2024-02-04T09:54:12.755Z,60.19
2024-02-04T09:55:12.686Z,61.99
2024-02-04T09:56:12.715Z,61.52
2024-02-04T09:57:12.590Z,61.05
2024-02-04T09:58:12.647Z,63.54
2024-02-04T09:59:12.577Z,62.11
2024-02-04T10:00:12.646Z,62.21
2024-02-04T10:01:12.722Z,63.12
2024-02-04T10:02:12.674Z,60.87
2024-02-04T10:03:12.648Z,59.08
2024-02-04T10:04:12.682Z,63.00
2024-02-04T10:05:12.800Z,66.22
2024-02-04T10:06:12.864Z,63.52
2024-02-04T10:07:12.894Z,60.15
2024-02-04T10:08:12.636Z,64.78
2024-02-04T10:09:12.579Z,61.54
2024-02-04T10:10:12.558Z,61.28
2024-02-04T10:11:12.580Z,62.80
2024-02-04T10:12:12.544Z,63.97
2024-02-04T10:13:12.510Z,66.97
2024-02-04T10:14:12.818Z,65.05
2024-02-04T10:15:12.441Z,63.46
2024-02-04T10:16:12.526Z,60.40
2024-02-04T10:17:12.450Z,62.33
2024-02-04T10:18:12.543Z,62.34
2024-02-04T10:19:12.446Z,62.63
2024-02-04T10:20:12.414Z,66.88
2024-02-04T10:21:12.402Z,62.22
2024-02-04T10:22:12.526Z,61.56
2024-02-04T10:23:12.426Z,62.31
2024-02-04T10:24:12.400Z,66.98
2024-02-04T10:25:12.414Z,65.16
2024-02-04T10:26:12.502Z,65.34
2024-02-04T10:27:18.926Z,65.16
2024-02-04T10:28:14.382Z,64.47
2024-02-04T10:29:12.353Z,62.07
2024-02-04T10:30:12.327Z,64.57
2024-02-04T10:31:12.554Z,63.85
2024-02-04T10:32:12.345Z,63.20
2024-02-04T10:33:12.449Z,64.78
2024-02-04T10:34:12.387Z,61.20
2024-02-04T10:35:12.310Z,62.85
2024-02-04T10:36:12.278Z,67.18
2024-02-04T10:37:12.361Z,62.95
2024-02-04T10:38:12.269Z,65.89
2024-02-04T10:39:12.290Z,63.44
2024-02-04T10:40:12.313Z,65.34
2024-02-04T10:41:12.248Z,64.76
2024-02-04T10:42:12.256Z,65.60
2024-02-04T10:43:12.265Z,66.71
2024-02-04T10:44:12.229Z,66.29
2024-02-04T10:45:12.219Z,64.27
2024-02-04T10:46:12.807Z,61.49
2024-02-04T10:47:12.200Z,62.86
2024-02-04T10:48:12.218Z,65.78
2024-02-04T10:49:12.230Z,64.53
2024-02-04T10:50:12.337Z,64.83
2024-02-04T10:51:12.189Z,65.98
2024-02-04T10:52:12.209Z,63.18
2024-02-04T10:53:13.819Z,67.10
2024-02-04T10:54:12.149Z,71.01
2024-02-04T10:55:12.415Z,64.33
2024-02-04T10:56:12.156Z,66.04
2024-02-04T10:57:12.134Z,65.76
2024-02-04T10:58:12.295Z,64.77
2024-02-04T10:59:12.105Z,64.55
2024-02-04T11:00:12.109Z,64.30
2024-02-04T11:01:12.208Z,63.16
2024-02-04T11:02:12.081Z,64.01
2024-02-04T11:03:12.073Z,64.79
2024-02-04T11:04:12.176Z,63.83
2024-02-04T11:05:12.720Z,66.71
2024-02-04T11:06:12.090Z,64.88
2024-02-04T11:07:13.196Z,63.93
2024-02-04T11:08:12.078Z,66.09
2024-02-04T11:09:13.712Z,61.87
2024-02-04T11:10:12.058Z,63.96
2024-02-04T11:11:12.022Z,62.49
2024-02-04T11:12:12.009Z,64.26
2024-02-04T11:13:13.866Z,66.14
2024-02-04T11:14:13.834Z,64.70
2024-02-04T11:15:12.026Z,63.12
2024-02-04T11:16:12.013Z,64.61
2024-02-04T11:17:11.968Z,66.16
2024-02-04T11:18:12.444Z,65.53
2024-02-04T11:19:12.078Z,65.40
2024-02-04T11:20:11.984Z,64.78
2024-02-04T11:21:11.931Z,66.64
2024-02-04T11:22:11.971Z,64.62
2024-02-04T11:23:11.921Z,66.15
2024-02-04T11:24:12.756Z,65.89
2024-02-04T11:25:11.997Z,64.02
2024-02-04T11:26:11.918Z,63.21
2024-02-04T11:27:11.941Z,64.28
2024-02-04T11:28:12.004Z,58.96
2024-02-04T11:29:11.889Z,63.99
2024-02-04T11:30:11.933Z,63.77
2024-02-04T11:31:11.911Z,60.57
2024-02-04T11:32:11.914Z,63.91
2024-02-04T11:33:12.976Z,66.35
2024-02-04T11:34:12.014Z,63.47
2024-02-04T11:35:13.267Z,63.56
2024-02-04T11:36:13.386Z,64.01
2024-02-04T11:37:11.860Z,63.28
2024-02-04T11:38:12.811Z,62.32
2024-02-04T11:41:19.740Z,64.35
2024-02-04T11:42:20.561Z,64.63
2024-02-04T11:43:19.767Z,62.61
2024-02-04T11:44:20.776Z,63.59
2024-02-04T11:45:21.528Z,65.76
2024-02-04T11:46:22.553Z,63.04
2024-02-04T11:47:22.625Z,67.20
2024-02-04T11:48:22.591Z,66.39
2024-02-04T11:49:23.780Z,64.58
2024-02-04T11:50:20.858Z,61.22
2024-02-04T11:51:20.780Z,65.11
2024-02-04T11:52:20.711Z,64.73
2024-02-04T11:53:20.689Z,64.93
2024-02-04T11:54:21.649Z,66.43
2024-02-04T11:55:20.769Z,61.59
2024-02-04T11:56:20.715Z,65.77
2024-02-04T11:57:20.640Z,63.21
2024-02-04T11:58:21.752Z,60.40
2024-02-04T11:59:21.626Z,63.57
2024-02-04T12:00:20.593Z,63.85
2024-02-04T12:01:20.611Z,63.83
2024-02-04T12:02:20.608Z,65.85
2024-02-04T12:03:20.556Z,67.56
2024-02-04T12:04:20.597Z,62.10
2024-02-04T12:05:20.652Z,62.30
2024-02-04T12:06:20.561Z,64.27
2024-02-04T12:07:20.625Z,63.38
2024-02-04T12:08:20.592Z,64.61
2024-02-04T12:09:20.552Z,66.46
2024-02-04T12:10:21.098Z,64.41
2024-02-04T12:11:20.516Z,62.98
2024-02-04T12:12:22.116Z,63.87
2024-02-04T12:13:20.566Z,64.57
2024-02-04T12:14:20.466Z,62.01
2024-02-04T12:15:20.519Z,65.22
2024-02-04T12:16:20.553Z,64.05
2024-02-04T12:17:20.472Z,63.55
2024-02-04T12:18:20.600Z,64.14
2024-02-04T12:19:20.514Z,64.25
2024-02-04T12:20:20.494Z,67.07
2024-02-04T12:21:20.441Z,65.59
2024-02-04T12:22:20.458Z,65.91
2024-02-04T12:23:20.445Z,68.50
2024-02-04T12:24:20.406Z,65.00
2024-02-04T12:25:20.459Z,66.98
2024-02-04T12:26:20.412Z,61.53
2024-02-04T12:27:20.384Z,63.49
2024-02-04T12:28:21.566Z,61.86
2024-02-04T12:29:20.395Z,63.77
2024-02-04T12:30:21.055Z,65.71
2024-02-04T12:31:21.205Z,63.66
2024-02-04T12:32:20.411Z,67.38
2024-02-04T12:33:21.272Z,65.50
2024-02-04T12:34:20.365Z,63.36
2024-02-04T12:35:20.332Z,65.84
2024-02-04T12:36:21.124Z,67.73
2024-02-04T12:37:20.721Z,65.69
2024-02-04T12:38:21.077Z,64.94
2024-02-04T12:39:20.284Z,64.75
2024-02-04T12:40:21.020Z,63.55
2024-02-04T12:41:20.286Z,63.60
2024-02-04T12:42:20.305Z,65.28
2024-02-04T12:43:20.361Z,61.64
2024-02-04T12:44:21.114Z,64.62
2024-02-04T12:45:20.232Z,65.85
2024-02-04T12:46:20.293Z,65.26
2024-02-04T12:47:21.120Z,67.34
2024-02-04T12:48:20.294Z,66.32
2024-02-04T12:49:22.365Z,63.90
2024-02-04T12:50:20.354Z,64.10
2024-02-04T12:51:20.221Z,64.35
2024-02-04T12:52:20.225Z,63.74
2024-02-04T12:53:22.090Z,66.14
2024-02-04T12:54:22.030Z,65.36
2024-02-04T12:55:20.246Z,64.73
2024-02-04T12:56:21.031Z,64.83